Time;durP1;ratioP1;P1;durP2;ratioP2;P2;SDS_P1;SDS_P2;PMS_P1;PMS_P2;Temp;Humidity;BMP_temperature;BMP_pressure;BME280_temperature;BME280_humidity;BME280_pressure;Samples;Min_cycle;Max_cycle;Signal;HPM_P1;HPM_P2
2021/05/22 00:00:30;;;;;;;1.50;1.23;;;9.30;99.90;;;;;;5028668;28;20248;-73
2021/05/22 00:02:56;;;;;;;4.28;1.27;;;9.30;99.90;;;;;;5029714;28;20540;-73
2021/05/22 00:05:23;;;;;;;2.65;1.50;;;9.30;99.90;;;;;;5028840;28;20518;-73
2021/05/22 00:07:49;;;;;;;1.00;0.90;;;9.30;99.90;;;;;;5028324;28;20205;-73
2021/05/22 00:10:15;;;;;;;2.25;1.40;;;9.30;99.90;;;;;;5028356;28;20222;-73
2021/05/22 00:12:45;;;;;;;2.05;1.20;;;9.30;99.90;;;;;;5028329;28;20230;-72
2021/05/22 00:15:15;;;;;;;2.17;1.10;;;9.30;99.90;;;;;;5028118;28;20710;-72
2021/05/22 00:17:41;;;;;;;1.30;1.05;;;9.40;99.90;;;;;;5028043;28;20216;-73
2021/05/22 00:20:09;;;;;;;1.83;1.00;;;9.30;99.90;;;;;;5027926;28;20230;-73
2021/05/22 00:22:36;;;;;;;1.70;1.00;;;9.30;99.90;;;;;;5027936;28;20205;-72
2021/05/22 00:25:02;;;;;;;1.30;1.10;;;9.30;99.90;;;;;;5028317;28;20229;-73
2021/05/22 00:27:29;;;;;;;1.73;1.15;;;9.30;99.90;;;;;;5027953;28;20264;-73
2021/05/22 00:29:55;;;;;;;2.28;1.35;;;9.30;99.90;;;;;;5051312;23;20230;-71
2021/05/22 00:32:22;;;;;;;1.20;1.10;;;9.30;99.90;;;;;;5053928;28;20315;-70
2021/05/22 00:34:49;;;;;;;1.50;1.00;;;9.30;99.90;;;;;;5066226;28;20577;-70
2021/05/22 00:37:15;;;;;;;1.27;0.90;;;9.30;99.90;;;;;;5067866;28;20572;-71
2021/05/22 00:39:41;;;;;;;1.00;0.90;;;9.20;99.90;;;;;;5067811;28;20196;-70
2021/05/22 00:42:08;;;;;;;1.38;1.10;;;9.10;99.90;;;;;;5067748;28;20203;-70
2021/05/22 00:44:35;;;;;;;2.85;1.10;;;9.10;99.90;;;;;;5068213;28;20215;-70
2021/05/22 00:47:03;;;;;;;1.00;0.90;;;9.10;99.90;;;;;;5068146;28;20235;-70
2021/05/22 00:49:30;;;;;;;1.02;0.85;;;9.10;99.90;;;;;;5067909;28;20298;-70
2021/05/22 00:51:56;;;;;;;1.70;1.08;;;9.00;99.90;;;;;;5067622;28;20400;-70
2021/05/22 00:54:23;;;;;;;1.05;0.95;;;8.90;99.90;;;;;;5068058;28;20261;-70
2021/05/22 00:56:49;;;;;;;1.25;0.90;;;8.90;99.90;;;;;;5067646;28;20342;-71
2021/05/22 00:59:18;;;;;;;1.20;1.00;;;8.90;99.90;;;;;;5067726;28;20212;-71
2021/05/22 01:01:44;;;;;;;2.47;1.50;;;8.90;99.90;;;;;;5067838;28;20278;-70
2021/05/22 01:04:11;;;;;;;2.50;1.20;;;8.90;99.90;;;;;;5067428;28;20314;-71
2021/05/22 01:06:38;;;;;;;1.15;0.90;;;8.90;99.90;;;;;;5067787;28;20204;-71
2021/05/22 01:09:13;;;;;;;1.10;1.00;;;8.90;99.90;;;;;;5067605;28;20295;-71
2021/05/22 01:11:42;;;;;;;1.00;0.90;;;8.80;99.90;;;;;;5067305;28;20228;-71
2021/05/22 01:14:13;;;;;;;1.85;1.20;;;8.80;99.90;;;;;;5067202;28;20208;-71
2021/05/22 01:16:40;;;;;;;1.48;1.20;;;8.80;99.90;;;;;;5067567;28;20231;-71
2021/05/22 01:19:08;;;;;;;7.40;1.00;;;8.80;99.90;;;;;;5067190;28;20744;-70
2021/05/22 01:21:38;;;;;;;1.13;0.90;;;8.80;99.90;;;;;;5067303;28;20230;-70
2021/05/22 01:24:09;;;;;;;1.90;1.08;;;8.80;99.90;;;;;;5067201;28;20287;-71
2021/05/22 01:26:37;;;;;;;1.08;0.98;;;8.80;99.90;;;;;;5067236;28;20299;-70
2021/05/22 01:29:04;;;;;;;1.15;0.93;;;8.90;99.90;;;;;;5066434;28;20208;-70
2021/05/22 01:31:32;;;;;;;1.35;1.10;;;8.80;99.90;;;;;;5066818;28;20323;-71
2021/05/22 01:33:59;;;;;;;2.08;1.25;;;8.80;99.90;;;;;;5067117;28;20224;-71
2021/05/22 01:36:26;;;;;;;1.40;1.20;;;8.80;99.90;;;;;;5067037;28;20342;-71
2021/05/22 01:38:52;;;;;;;1.20;1.10;;;8.80;99.90;;;;;;5066718;28;20852;-71
2021/05/22 01:41:19;;;;;;;2.08;1.10;;;8.90;99.90;;;;;;5066898;28;20768;-70
2021/05/22 01:43:49;;;;;;;1.30;1.10;;;8.90;99.90;;;;;;5067934;28;20199;-70
2021/05/22 01:46:23;;;;;;;3.10;1.20;;;8.90;99.90;;;;;;5069154;28;20220;-71
2021/05/22 01:48:51;;;;;;;1.25;1.15;;;8.90;99.90;;;;;;5070692;28;20428;-71
2021/05/22 01:51:20;;;;;;;2.72;1.58;;;8.90;99.90;;;;;;5071531;28;20220;-71
2021/05/22 01:53:47;;;;;;;2.50;1.20;;;8.90;99.90;;;;;;5071069;28;20318;-71
2021/05/22 01:56:15;;;;;;;1.48;1.00;;;8.90;99.90;;;;;;5071078;28;20295;-71
2021/05/22 01:58:42;;;;;;;1.45;1.00;;;8.90;99.90;;;;;;5070608;28;20200;-71
2021/05/22 02:01:12;;;;;;;2.67;1.10;;;8.90;99.90;;;;;;5060748;28;20711;-70
2021/05/22 02:03:42;;;;;;;2.22;1.50;;;8.90;99.90;;;;;;5051373;28;20197;-71
2021/05/22 02:06:18;;;;;;;3.75;1.48;;;9.00;99.90;;;;;;5051030;28;20279;-71
2021/05/22 02:08:46;;;;;;;1.17;1.00;;;9.00;99.90;;;;;;5050674;28;20208;-71
2021/05/22 02:11:13;;;;;;;1.42;1.10;;;9.00;99.90;;;;;;5050709;28;20251;-71
2021/05/22 02:13:42;;;;;;;1.40;1.20;;;9.00;99.90;;;;;;5050648;28;20229;-71
2021/05/22 02:16:10;;;;;;;1.67;1.20;;;9.00;99.90;;;;;;5050248;28;20208;-71
2021/05/22 02:18:40;;;;;;;1.73;1.20;;;9.00;99.90;;;;;;5050309;28;20200;-71
2021/05/22 02:21:09;;;;;;;1.80;1.40;;;9.00;99.90;;;;;;5050624;28;20221;-71
2021/05/22 02:23:40;;;;;;;3.35;1.30;;;9.10;99.90;;;;;;5050589;28;20197;-71
2021/05/22 02:26:07;;;;;;;1.55;1.20;;;9.10;99.90;;;;;;5050794;28;20204;-71
2021/05/22 02:28:38;;;;;;;3.28;1.38;;;9.20;99.90;;;;;;5050139;28;20614;-71
2021/05/22 02:31:05;;;;;;;1.50;1.20;;;9.20;99.90;;;;;;5050413;28;20233;-71
2021/05/22 02:33:32;;;;;;;3.75;1.20;;;9.10;99.90;;;;;;5050334;28;20233;-71
2021/05/22 02:36:00;;;;;;;1.55;1.17;;;9.10;99.90;;;;;;5050727;28;20575;-71
2021/05/22 02:38:30;;;;;;;2.80;1.30;;;9.10;99.90;;;;;;5050072;28;20201;-71
2021/05/22 02:41:00;;;;;;;1.77;1.17;;;9.00;99.90;;;;;;5050476;28;20224;-71
2021/05/22 02:43:28;;;;;;;3.72;1.40;;;8.90;99.90;;;;;;5050445;28;20229;-70
2021/05/22 02:45:55;;;;;;;1.52;1.20;;;8.90;99.90;;;;;;5050385;28;20236;-70
2021/05/22 02:48:22;;;;;;;1.80;1.50;;;8.90;99.90;;;;;;5050192;28;20211;-71
2021/05/22 02:50:50;;;;;;;2.33;1.10;;;8.90;99.90;;;;;;5050110;28;20228;-71
2021/05/22 02:53:21;;;;;;;2.00;1.15;;;8.70;99.90;;;;;;5050435;28;20217;-70
2021/05/22 02:55:49;;;;;;;1.98;1.45;;;8.70;99.90;;;;;;5050163;28;20572;-70
2021/05/22 02:58:15;;;;;;;1.67;1.20;;;8.60;99.90;;;;;;5049966;28;20201;-71
2021/05/22 03:00:42;;;;;;;2.20;1.42;;;8.60;99.90;;;;;;5049951;28;20298;-70
2021/05/22 03:03:09;;;;;;;2.25;1.40;;;8.50;99.90;;;;;;5050339;28;20201;-70
2021/05/22 03:05:35;;;;;;;1.40;1.30;;;8.50;99.90;;;;;;5049987;28;20657;-70
2021/05/22 03:08:02;;;;;;;2.80;1.38;;;8.50;99.90;;;;;;5049973;28;20223;-70
2021/05/22 03:10:30;;;;;;;3.47;1.30;;;8.60;99.90;;;;;;5050139;28;20263;-70
2021/05/22 03:12:56;;;;;;;2.38;1.30;;;8.50;99.90;;;;;;5049990;28;20625;-71
2021/05/22 03:15:22;;;;;;;3.13;1.60;;;8.40;99.90;;;;;;5050556;28;20201;-71
2021/05/22 03:17:49;;;;;;;2.00;1.50;;;8.40;99.90;;;;;;5049648;28;20208;-70
2021/05/22 03:20:15;;;;;;;1.80;1.20;;;8.40;99.90;;;;;;5050102;28;20573;-71
2021/05/22 03:22:42;;;;;;;2.05;1.40;;;8.40;99.90;;;;;;5049879;28;20205;-71
2021/05/22 03:25:09;;;;;;;2.53;1.58;;;8.40;99.90;;;;;;5050157;28;20208;-71
2021/05/22 03:27:37;;;;;;;2.85;1.50;;;8.30;99.90;;;;;;5049701;28;20205;-70
2021/05/22 03:30:05;;;;;;;1.60;1.30;;;8.30;99.90;;;;;;5052878;28;20236;-71
2021/05/22 03:32:32;;;;;;;1.30;0.93;;;8.20;99.90;;;;;;5053705;28;20217;-70
2021/05/22 03:34:58;;;;;;;2.53;1.63;;;8.20;99.90;;;;;;5053804;28;20208;-71
2021/05/22 03:37:24;;;;;;;2.15;1.25;;;8.20;99.90;;;;;;5053787;28;20573;-71
2021/05/22 03:39:50;;;;;;;1.30;1.20;;;8.10;99.90;;;;;;5053219;28;20205;-68
2021/05/22 03:42:17;;;;;;;3.15;1.40;;;8.10;99.90;;;;;;5053720;28;20205;-68
2021/05/22 03:44:44;;;;;;;2.30;1.48;;;8.10;99.90;;;;;;5053295;28;20205;-68
2021/05/22 03:47:10;;;;;;;1.98;1.45;;;8.10;99.90;;;;;;5053613;28;20208;-70
2021/05/22 03:49:37;;;;;;;1.80;1.20;;;8.10;99.90;;;;;;5053027;28;20209;-70
2021/05/22 03:52:04;;;;;;;2.95;1.25;;;8.10;99.90;;;;;;5053294;28;20224;-70
2021/05/22 03:54:31;;;;;;;2.28;1.40;;;8.10;99.90;;;;;;5053288;28;20676;-70
2021/05/22 03:56:57;;;;;;;2.15;1.35;;;8.10;99.90;;;;;;5053186;28;20198;-70
2021/05/22 03:59:23;;;;;;;1.30;1.20;;;8.10;99.90;;;;;;5053045;28;20291;-71
2021/05/22 04:01:50;;;;;;;1.38;1.27;;;8.20;99.90;;;;;;5053259;28;20224;-70
2021/05/22 04:04:17;;;;;;;3.92;1.42;;;8.20;99.90;;;;;;5053504;28;20201;-71
2021/05/22 04:06:43;;;;;;;3.08;1.20;;;8.20;99.90;;;;;;5053011;28;20205;-71
2021/05/22 04:09:09;;;;;;;2.75;1.38;;;8.20;99.90;;;;;;5052938;28;20212;-71
2021/05/22 04:11:35;;;;;;;2.95;1.30;;;8.20;99.90;;;;;;5052821;28;20221;-71
2021/05/22 04:14:01;;;;;;;1.90;1.10;;;8.20;99.90;;;;;;5053018;28;20224;-70
2021/05/22 04:16:28;;;;;;;1.88;1.30;;;8.20;99.90;;;;;;5052959;28;20216;-71
2021/05/22 04:18:55;;;;;;;1.95;1.08;;;8.20;99.90;;;;;;5052537;28;20208;-71
2021/05/22 04:21:22;;;;;;;2.35;1.25;;;8.20;99.90;;;;;;5052875;28;20228;-71
2021/05/22 04:23:48;;;;;;;2.53;1.15;;;8.20;99.90;;;;;;5052590;28;20205;-71
2021/05/22 04:26:14;;;;;;;3.90;1.70;;;8.20;99.90;;;;;;5052830;28;20204;-71
2021/05/22 04:28:40;;;;;;;4.05;1.17;;;8.20;99.90;;;;;;5052241;28;20243;-71
2021/05/22 04:31:06;;;;;;;1.48;1.23;;;8.20;99.90;;;;;;5052753;28;20235;-71
2021/05/22 04:33:32;;;;;;;1.70;1.17;;;8.20;99.90;;;;;;5052431;28;20225;-71
2021/05/22 04:35:59;;;;;;;1.65;1.20;;;8.10;99.90;;;;;;5052604;28;20228;-71
2021/05/22 04:38:26;;;;;;;1.85;1.20;;;8.10;99.90;;;;;;5052185;28;20197;-71
2021/05/22 04:40:52;;;;;;;2.35;1.33;;;8.10;99.90;;;;;;5051835;28;20236;-71
2021/05/22 04:43:18;;;;;;;1.30;1.10;;;8.10;99.90;;;;;;5052510;28;20197;-70
2021/05/22 04:45:45;;;;;;;1.70;1.10;;;8.00;99.90;;;;;;5052213;28;20553;-71
2021/05/22 04:48:11;;;;;;;1.60;1.30;;;8.00;99.90;;;;;;5052246;28;20226;-71
2021/05/22 04:50:38;;;;;;;1.83;1.33;;;8.00;99.90;;;;;;5052092;28;20228;-70
2021/05/22 04:53:05;;;;;;;1.30;1.10;;;8.10;99.90;;;;;;5052266;28;20224;-71
2021/05/22 04:55:32;;;;;;;1.90;1.20;;;8.20;99.90;;;;;;5052322;28;20205;-71
2021/05/22 04:57:58;;;;;;;1.35;1.05;;;8.20;99.90;;;;;;5051875;28;20197;-71
2021/05/22 05:00:24;;;;;;;1.52;1.15;;;8.40;99.90;;;;;;5052124;28;20225;-71
2021/05/22 05:02:51;;;;;;;3.03;1.13;;;8.50;99.90;;;;;;5052084;28;20219;-71
2021/05/22 05:05:17;;;;;;;2.20;1.17;;;8.60;99.90;;;;;;5052358;28;20629;-70
2021/05/22 05:07:43;;;;;;;1.60;1.02;;;8.70;99.90;;;;;;5051529;28;20205;-70
2021/05/22 05:10:12;;;;;;;2.25;1.17;;;8.60;99.90;;;;;;5051967;28;20259;-71
2021/05/22 05:12:38;;;;;;;1.65;1.23;;;8.60;99.90;;;;;;5051741;28;20228;-71
2021/05/22 05:15:06;;;;;;;2.28;1.55;;;8.50;99.90;;;;;;5051945;28;20204;-71
2021/05/22 05:17:33;;;;;;;3.95;1.17;;;8.50;99.90;;;;;;5051669;28;20205;-71
2021/05/22 05:19:59;;;;;;;2.30;1.30;;;8.50;99.90;;;;;;5051328;28;20552;-71
2021/05/22 05:22:26;;;;;;;2.08;1.05;;;8.60;99.90;;;;;;5051765;28;20201;-71
2021/05/22 05:24:53;;;;;;;3.08;1.63;;;8.70;99.90;;;;;;5051627;28;20347;-71
2021/05/22 05:27:20;;;;;;;1.98;1.10;;;8.80;99.90;;;;;;5051618;28;20208;-70
2021/05/22 05:29:46;;;;;;;2.33;1.27;;;8.90;99.90;;;;;;5050878;28;20680;-71
2021/05/22 05:32:12;;;;;;;2.30;1.38;;;9.00;99.90;;;;;;5051650;28;20205;-71
2021/05/22 05:34:41;;;;;;;3.10;1.20;;;9.10;99.90;;;;;;5051386;28;20201;-71
2021/05/22 05:37:07;;;;;;;1.92;1.05;;;9.20;99.90;;;;;;5051407;28;20202;-71
2021/05/22 05:39:33;;;;;;;1.63;1.23;;;9.30;99.90;;;;;;5051031;28;20205;-71
2021/05/22 05:42:00;;;;;;;4.32;1.30;;;9.20;99.90;;;;;;5051202;28;20224;-71
2021/05/22 05:44:27;;;;;;;3.95;1.30;;;9.20;99.90;;;;;;5051299;28;20676;-71
2021/05/22 05:46:53;;;;;;;3.97;1.50;;;9.20;99.90;;;;;;5051001;28;20296;-72
2021/05/22 05:49:19;;;;;;;1.27;0.98;;;9.30;99.90;;;;;;5050978;28;20201;-71
2021/05/22 05:51:45;;;;;;;2.03;1.20;;;9.40;99.90;;;;;;5050318;28;20224;-71
2021/05/22 05:54:12;;;;;;;2.67;1.48;;;9.50;99.90;;;;;;5050950;28;20221;-71
2021/05/22 05:56:38;;;;;;;2.13;1.50;;;9.60;99.90;;;;;;5051133;28;20651;-71
2021/05/22 05:59:04;;;;;;;2.80;1.13;;;9.60;99.90;;;;;;5050763;28;20677;-71
2021/05/22 06:01:31;;;;;;;2.25;1.48;;;9.70;99.90;;;;;;5050918;28;20221;-71
2021/05/22 06:03:57;;;;;;;2.50;1.45;;;9.80;99.90;;;;;;5050904;28;20193;-71
2021/05/22 06:06:24;;;;;;;2.50;1.50;;;9.90;99.90;;;;;;5050961;28;20205;-71
2021/05/22 06:08:50;;;;;;;3.40;1.75;;;9.90;99.90;;;;;;5050361;28;20672;-71
2021/05/22 06:11:20;;;;;;;1.48;1.10;;;9.90;99.90;;;;;;5050882;28;20239;-71
2021/05/22 06:13:46;;;;;;;5.15;2.00;;;9.90;99.90;;;;;;5050594;28;20253;-71
2021/05/22 06:16:20;;;;;;;3.08;1.60;;;10.00;99.90;;;;;;5050611;28;20312;-71
2021/05/22 06:18:48;;;;;;;9.23;2.42;;;9.90;99.90;;;;;;5050324;28;20296;-71
2021/05/22 06:21:15;;;;;;;4.03;1.80;;;10.00;99.90;;;;;;5050434;28;20781;-71
2021/05/22 06:23:41;;;;;;;3.50;1.55;;;10.00;99.90;;;;;;5050499;28;20243;-71
2021/05/22 06:26:07;;;;;;;1.88;1.42;;;10.10;99.90;;;;;;5050521;28;20254;-71
2021/05/22 06:28:34;;;;;;;4.10;2.30;;;10.30;99.90;;;;;;5050133;28;20560;-72
2021/05/22 06:31:01;;;;;;;4.53;1.70;;;10.30;99.90;;;;;;5050427;28;20233;-70
2021/05/22 06:33:27;;;;;;;2.60;1.50;;;10.40;99.90;;;;;;5049585;28;20217;-71
2021/05/22 06:35:54;;;;;;;6.05;2.50;;;10.30;99.90;;;;;;5048463;28;20240;-69
2021/05/22 06:38:21;;;;;;;2.40;1.48;;;10.30;99.90;;;;;;5048836;28;20205;-68
2021/05/22 06:40:48;;;;;;;4.38;1.85;;;10.40;99.90;;;;;;5048381;28;20221;-70
2021/05/22 06:43:14;;;;;;;2.20;1.42;;;10.50;99.90;;;;;;5050117;28;20200;-70
2021/05/22 06:45:43;;;;;;;2.55;1.48;;;10.60;99.90;;;;;;5050300;28;20208;-70
2021/05/22 06:48:12;;;;;;;3.90;1.63;;;10.70;99.90;;;;;;5049837;28;20219;-69
2021/05/22 06:50:39;;;;;;;3.00;1.50;;;10.70;99.90;;;;;;5050180;28;20231;-69
2021/05/22 06:53:06;;;;;;;3.50;1.85;;;10.80;99.90;;;;;;5050378;28;20224;-70
2021/05/22 06:55:33;;;;;;;2.45;1.80;;;10.80;99.90;;;;;;5050321;28;20205;-69
2021/05/22 06:58:00;;;;;;;5.03;2.22;;;10.90;99.90;;;;;;5049907;28;20281;-70
2021/05/22 07:00:26;;;;;;;5.78;1.38;;;11.00;99.90;;;;;;5050229;28;20232;-70
2021/05/22 07:02:53;;;;;;;2.85;1.50;;;11.10;99.90;;;;;;5051480;28;20205;-70
2021/05/22 07:05:19;;;;;;;1.98;1.38;;;11.20;99.90;;;;;;5054240;28;20212;-68
2021/05/22 07:07:45;;;;;;;6.22;2.00;;;11.20;99.90;;;;;;5053805;28;20251;-68
2021/05/22 07:10:13;;;;;;;6.65;1.60;;;11.30;99.90;;;;;;5054231;28;20259;-70
2021/05/22 07:12:40;;;;;;;5.93;1.80;;;11.50;99.90;;;;;;5054186;28;20216;-69
2021/05/22 07:15:09;;;;;;;2.90;1.25;;;11.60;99.90;;;;;;5054383;28;20205;-69
2021/05/22 07:17:35;;;;;;;3.05;1.35;;;11.60;99.90;;;;;;5053819;28;20210;-67
2021/05/22 07:20:02;;;;;;;6.78;1.50;;;11.70;99.90;;;;;;5053756;28;20228;-69
2021/05/22 07:22:28;;;;;;;2.17;1.48;;;11.90;99.90;;;;;;5054011;28;20683;-68
2021/05/22 07:24:54;;;;;;;2.97;1.50;;;12.00;99.90;;;;;;5053999;28;20234;-70
2021/05/22 07:27:22;;;;;;;3.70;1.70;;;12.00;99.90;;;;;;5054023;28;20296;-68
2021/05/22 07:29:50;;;;;;;2.85;1.85;;;11.90;99.90;;;;;;5053457;28;20612;-68
2021/05/22 07:32:16;;;;;;;4.30;2.10;;;12.00;99.90;;;;;;5053748;28;20201;-68
2021/05/22 07:34:43;;;;;;;3.97;1.40;;;12.00;99.90;;;;;;5053762;28;20628;-69
2021/05/22 07:37:09;;;;;;;3.63;1.10;;;12.00;99.90;;;;;;5053067;28;20223;-68
2021/05/22 07:39:35;;;;;;;3.78;1.80;;;12.10;99.90;;;;;;5053403;28;20209;-68
2021/05/22 07:42:02;;;;;;;1.80;1.50;;;12.30;99.90;;;;;;5053383;28;20232;-68
2021/05/22 07:44:29;;;;;;;3.72;1.65;;;12.40;99.90;;;;;;5053284;28;20197;-69
2021/05/22 07:46:55;;;;;;;3.70;1.50;;;12.40;99.90;;;;;;5052479;28;20660;-70
2021/05/22 07:49:36;;;;;;;4.15;1.48;;;12.50;99.90;;;;;;5053167;28;20242;-70
2021/05/22 07:52:03;;;;;;;6.55;1.55;;;12.40;99.90;;;;;;5055927;28;20227;-70
2021/05/22 07:54:29;;;;;;;3.08;1.90;;;12.40;99.90;;;;;;5073506;28;20216;-71
2021/05/22 07:56:56;;;;;;;2.85;1.50;;;12.50;99.90;;;;;;5072953;28;20208;-70
2021/05/22 07:59:22;;;;;;;3.83;1.23;;;12.40;99.90;;;;;;5072715;28;20200;-71
2021/05/22 08:01:49;;;;;;;3.30;1.60;;;12.60;99.90;;;;;;5073990;28;20703;-71
2021/05/22 08:04:15;;;;;;;1.60;1.27;;;12.80;99.90;;;;;;5073513;28;20196;-70
2021/05/22 08:06:41;;;;;;;2.47;1.30;;;13.10;99.90;;;;;;5073259;28;21047;-71
2021/05/22 08:09:08;;;;;;;3.87;1.33;;;13.20;99.90;;;;;;5073034;28;20543;-70
2021/05/22 08:11:34;;;;;;;2.53;1.52;;;13.20;99.90;;;;;;5073082;28;20482;-70
2021/05/22 08:14:00;;;;;;;6.30;1.50;;;13.10;99.90;;;;;;5072363;28;20227;-70
2021/05/22 08:16:26;;;;;;;2.50;1.30;;;12.90;99.90;;;;;;5072838;28;20522;-71
2021/05/22 08:18:53;;;;;;;2.33;1.90;;;12.90;99.90;;;;;;5073037;28;20544;-71
2021/05/22 08:21:22;;;;;;;1.50;1.30;;;13.00;99.90;;;;;;5072756;28;21038;-70
2021/05/22 08:23:49;;;;;;;5.73;1.63;;;13.00;99.90;;;;;;5061109;28;20954;-71
2021/05/22 08:26:15;;;;;;;5.00;1.60;;;12.90;99.90;;;;;;5072059;28;20520;-71
2021/05/22 08:28:41;;;;;;;3.40;1.33;;;12.90;99.90;;;;;;5073082;28;20466;-71
2021/05/22 08:31:08;;;;;;;3.07;1.83;;;13.10;99.90;;;;;;5072548;28;20986;-70
2021/05/22 08:33:34;;;;;;;4.53;1.63;;;13.30;99.90;;;;;;5072338;28;20486;-70
2021/05/22 08:36:01;;;;;;;5.43;1.33;;;13.50;99.90;;;;;;5072831;28;20471;-71
2021/05/22 08:38:27;;;;;;;3.10;1.40;;;13.70;99.10;;;;;;5072181;28;20484;-70
2021/05/22 08:40:55;;;;;;;3.40;1.83;;;13.70;99.60;;;;;;5072848;28;20482;-71
2021/05/22 08:43:21;;;;;;;5.33;1.60;;;13.80;98.60;;;;;;5072334;28;20462;-72
2021/05/22 08:45:48;;;;;;;4.20;1.40;;;13.80;97.60;;;;;;5072500;28;20540;-71
2021/05/22 08:48:16;;;;;;;7.77;1.90;;;13.70;97.60;;;;;;5071932;28;20458;-71
2021/05/22 08:50:42;;;;;;;3.53;1.20;;;13.70;98.10;;;;;;5072500;28;20493;-71
2021/05/22 08:53:09;;;;;;;1.57;1.20;;;13.80;97.50;;;;;;5072505;28;20985;-71
2021/05/22 08:55:36;;;;;;;2.50;1.60;;;14.00;97.90;;;;;;5072024;28;20465;-70
2021/05/22 08:58:02;;;;;;;3.50;1.30;;;14.30;97.60;;;;;;5072040;28;20664;-71
2021/05/22 09:00:31;;;;;;;3.60;1.20;;;14.60;97.80;;;;;;5072474;28;20838;-70
2021/05/22 09:02:58;;;;;;;3.27;1.30;;;14.80;98.50;;;;;;5072371;28;20455;-71
2021/05/22 09:05:25;;;;;;;2.73;1.10;;;14.90;95.80;;;;;;5071982;28;20838;-70
2021/05/22 09:07:53;;;;;;;5.40;1.30;;;15.00;95.00;;;;;;5071763;28;20462;-71
2021/05/22 09:10:24;;;;;;;2.07;1.50;;;14.80;93.70;;;;;;5071922;28;20532;-70
2021/05/22 09:12:52;;;;;;;2.57;1.40;;;14.50;94.60;;;;;;5072214;28;20512;-70
2021/05/22 09:15:21;;;;;;;1.90;1.10;;;14.40;95.10;;;;;;5071947;28;20458;-71
2021/05/22 09:17:51;;;;;;;2.33;1.50;;;14.50;94.60;;;;;;5071478;28;20470;-71
2021/05/22 09:20:24;;;;;;;4.47;1.20;;;14.40;92.90;;;;;;5071989;28;20482;-70
2021/05/22 09:23:02;;;;;;;1.47;1.20;;;14.40;93.80;;;;;;5072076;28;20553;-71
2021/05/22 09:25:31;;;;;;;4.77;1.60;;;14.40;93.10;;;;;;5071586;28;20458;-71
2021/05/22 09:27:58;;;;;;;4.10;1.50;;;14.40;93.50;;;;;;5071634;28;20459;-70
2021/05/22 09:30:27;;;;;;;2.90;1.30;;;14.60;93.50;;;;;;5071332;28;20882;-70
2021/05/22 09:32:54;;;;;;;3.80;1.63;;;14.80;93.70;;;;;;5071353;28;20527;-71
2021/05/22 09:35:21;;;;;;;2.37;1.40;;;15.10;94.10;;;;;;5071406;28;20462;-70
2021/05/22 09:37:50;;;;;;;1.23;1.13;;;15.30;92.70;;;;;;5071199;28;20466;-70
2021/05/22 09:40:19;;;;;;;2.17;1.30;;;15.50;92.10;;;;;;5071368;28;20483;-70
2021/05/22 09:42:46;;;;;;;1.70;1.33;;;15.60;93.50;;;;;;5071522;28;20466;-70
2021/05/22 09:45:23;;;;;;;1.77;1.27;;;15.70;91.60;;;;;;5071073;28;20992;-70
2021/05/22 09:47:50;;;;;;;3.50;1.40;;;15.60;90.90;;;;;;5071070;28;20466;-70
2021/05/22 09:50:31;;;;;;;4.27;1.20;;;15.20;90.10;;;;;;5071266;28;20482;-70
2021/05/22 09:52:59;;;;;;;3.40;1.60;;;15.10;91.20;;;;;;5071327;28;20511;-71
2021/05/22 09:55:25;;;;;;;1.77;1.20;;;15.20;91.60;;;;;;5070967;28;20470;-70
2021/05/22 09:57:55;;;;;;;4.80;1.60;;;15.30;91.80;;;;;;5070845;28;20832;-71
2021/05/22 10:00:24;;;;;;;3.83;1.40;;;15.60;91.20;;;;;;5070827;28;21093;-71
2021/05/22 10:02:52;;;;;;;2.60;1.40;;;15.60;91.80;;;;;;5071295;28;20458;-71
2021/05/22 10:05:20;;;;;;;2.80;1.30;;;15.50;91.00;;;;;;5070757;28;20558;-71
2021/05/22 10:07:48;;;;;;;1.67;1.10;;;15.40;91.90;;;;;;5070605;28;20458;-70
2021/05/22 10:10:15;;;;;;;3.87;1.37;;;15.70;91.30;;;;;;5070662;28;20482;-70
2021/05/22 10:12:42;;;;;;;2.80;1.40;;;15.80;92.40;;;;;;5063678;28;20470;-70
2021/05/22 10:15:11;;;;;;;2.50;1.50;;;16.10;91.20;;;;;;5050509;28;21333;-70
2021/05/22 10:17:38;;;;;;;3.63;1.30;;;16.10;91.40;;;;;;5049798;28;20451;-70
2021/05/22 10:20:05;;;;;;;1.70;1.30;;;16.10;89.50;;;;;;5049901;28;20851;-70
2021/05/22 10:22:32;;;;;;;2.20;1.37;;;16.20;90.10;;;;;;5049693;28;20459;-71
2021/05/22 10:25:00;;;;;;;2.60;1.73;;;16.40;90.50;;;;;;5050390;28;20458;-70
2021/05/22 10:27:27;;;;;;;2.67;1.63;;;16.60;90.10;;;;;;5047489;28;20452;-70
2021/05/22 10:29:53;;;;;;;1.53;1.23;;;16.80;87.90;;;;;;5049624;28;20556;-71
2021/05/22 10:32:22;;;;;;;1.63;1.20;;;16.90;87.10;;;;;;5050032;28;20459;-70
2021/05/22 10:34:50;;;;;;;3.13;2.30;;;17.20;86.60;;;;;;5047799;28;20475;-72
2021/05/22 10:37:38;;;;;;;2.20;1.50;;;17.50;84.40;;;;;;5049847;28;20468;-70
2021/05/22 10:40:05;;;;;;;2.90;1.80;;;17.40;86.20;;;;;;5050112;28;20479;-72
2021/05/22 10:42:47;;;;;;;3.80;2.30;;;17.60;83.10;;;;;;5050372;28;20509;-70
2021/05/22 10:45:32;;;;;;;3.33;1.27;;;17.50;82.00;;;;;;5050036;28;20485;-70
2021/05/22 10:48:01;;;;;;;1.60;1.00;;;17.60;81.30;;;;;;5050226;28;20816;-70
2021/05/22 10:50:41;;;;;;;2.60;1.20;;;17.50;82.50;;;;;;5050322;28;20927;-70
2021/05/22 10:53:37;;;;;;;1.63;1.17;;;17.60;80.10;;;;;;5050424;28;20486;-71
2021/05/22 10:56:06;;;;;;;2.30;1.20;;;17.60;80.60;;;;;;4950121;29;20456;-71
2021/05/22 10:58:32;;;;;;;2.83;1.40;;;17.80;80.20;;;;;;5027536;28;20502;-69
2021/05/22 11:01:36;;;;;;;2.60;1.30;;;17.90;80.30;;;;;;5050024;28;21159;-70
2021/05/22 11:04:29;;;;;;;2.13;1.13;;;18.10;80.30;;;;;;5048882;28;20463;-68
2021/05/22 11:06:58;;;;;;;2.00;1.57;;;18.20;78.40;;;;;;5048765;28;20466;-68
2021/05/22 11:09:44;;;;;;;2.27;1.40;;;18.20;80.00;;;;;;5047612;28;21022;-71
2021/05/22 11:12:45;;;;;;;1.87;1.23;;;18.30;78.90;;;;;;5029230;28;20460;-70
2021/05/22 11:15:47;;;;;;;2.20;1.20;;;18.40;81.00;;;;;;5014917;28;20971;-70
2021/05/22 11:18:22;;;;;;;2.30;1.20;;;18.80;75.70;;;;;;5028692;28;20495;-70
2021/05/22 11:21:17;;;;;;;2.80;1.40;;;18.60;76.10;;;;;;5028621;28;20686;-69
2021/05/22 11:24:06;;;;;;;1.50;1.10;;;18.40;76.80;;;;;;5028406;28;20456;-70
2021/05/22 11:26:57;;;;;;;5.50;1.50;;;18.30;75.50;;;;;;5028515;28;20463;-70
2021/05/22 11:29:48;;;;;;;1.43;1.20;;;18.10;76.90;;;;;;5027933;28;20459;-69
2021/05/22 11:32:46;;;;;;;3.33;1.00;;;17.80;75.40;;;;;;5027802;28;20994;-69
2021/05/22 11:35:36;;;;;;;3.10;1.13;;;17.90;78.10;;;;;;5028136;28;20452;-69
2021/05/22 11:38:33;;;;;;;4.77;1.30;;;18.60;78.10;;;;;;5027603;28;20517;-69
2021/05/22 11:41:04;;;;;;;2.00;1.60;;;18.60;73.50;;;;;;5034616;28;21037;-70
2021/05/22 11:43:31;;;;;;;1.87;1.00;;;18.70;72.60;;;;;;5047336;28;20546;-69
2021/05/22 11:46:00;;;;;;;1.70;0.87;;;18.80;75.50;;;;;;5047724;28;20843;-70
2021/05/22 11:48:29;;;;;;;2.20;1.40;;;18.90;73.90;;;;;;5047052;28;20455;-69
2021/05/22 11:51:06;;;;;;;2.30;1.50;;;19.20;76.60;;;;;;5050375;28;20582;-70
2021/05/22 11:53:34;;;;;;;2.70;1.20;;;19.30;73.30;;;;;;5050906;28;20487;-69
2021/05/22 11:56:02;;;;;;;3.90;1.07;;;19.30;71.90;;;;;;5051392;28;20459;-69
2021/05/22 11:58:30;;;;;;;2.97;1.30;;;19.60;74.20;;;;;;5050933;28;20471;-70
2021/05/22 12:01:08;;;;;;;2.93;1.50;;;19.80;75.50;;;;;;5051435;28;20486;-69
2021/05/22 12:03:36;;;;;;;3.50;1.20;;;20.00;73.80;;;;;;5051257;28;20487;-69
2021/05/22 12:06:04;;;;;;;4.40;2.07;;;20.10;74.00;;;;;;5051224;28;20467;-69
2021/05/22 12:08:31;;;;;;;3.30;1.30;;;20.30;73.20;;;;;;5050682;28;20463;-69
2021/05/22 12:11:08;;;;;;;1.37;1.13;;;20.50;73.40;;;;;;5051003;28;20497;-69
2021/05/22 12:13:53;;;;;;;2.30;1.23;;;20.40;73.10;;;;;;5050782;28;20483;-69
2021/05/22 12:16:20;;;;;;;1.17;1.07;;;20.40;75.80;;;;;;5050336;28;20462;-69
2021/05/22 12:18:46;;;;;;;2.43;1.20;;;20.50;74.40;;;;;;5050746;28;20462;-69
2021/05/22 12:21:25;;;;;;;1.20;1.10;;;20.40;71.00;;;;;;5047739;28;20479;-70
2021/05/22 12:23:52;;;;;;;2.13;1.20;;;20.30;70.40;;;;;;5050391;28;20505;-70
2021/05/22 12:26:19;;;;;;;2.00;1.20;;;20.10;72.20;;;;;;5050367;28;20463;-69
2021/05/22 12:28:46;;;;;;;3.00;1.20;;;20.10;73.30;;;;;;5050509;28;20471;-69
2021/05/22 12:31:12;;;;;;;2.27;1.10;;;20.10;71.90;;;;;;5050078;28;20487;-67
2021/05/22 12:33:39;;;;;;;2.03;1.13;;;20.10;73.40;;;;;;5050377;28;20487;-68
2021/05/22 12:36:07;;;;;;;2.03;1.30;;;20.30;71.00;;;;;;5050663;28;20460;-67
2021/05/22 12:38:38;;;;;;;1.60;1.30;;;20.30;69.90;;;;;;5049397;28;20470;-68
2021/05/22 12:41:04;;;;;;;1.97;1.40;;;19.90;70.60;;;;;;5050146;28;20484;-67
2021/05/22 12:43:46;;;;;;;2.23;1.10;;;19.40;71.90;;;;;;5050042;28;20459;-67
2021/05/22 12:46:23;;;;;;;2.00;1.23;;;18.60;74.20;;;;;;5050185;28;20646;-67
2021/05/22 12:48:50;;;;;;;5.13;1.47;;;18.30;76.00;;;;;;5049828;28;20470;-69
2021/05/22 12:51:18;;;;;;;2.47;1.10;;;18.10;75.90;;;;;;5049845;28;20484;-68
2021/05/22 12:53:45;;;;;;;5.60;1.60;;;17.90;78.50;;;;;;5050078;28;20517;-68
2021/05/22 12:56:11;;;;;;;1.77;1.00;;;17.50;75.30;;;;;;5049871;28;20466;-67
2021/05/22 12:58:37;;;;;;;4.40;1.30;;;17.10;76.60;;;;;;5049805;28;20455;-68
2021/05/22 13:01:15;;;;;;;3.77;1.60;;;16.90;78.50;;;;;;5049542;28;20861;-68